Neelyville, MO (63954)

6:44 PM CDT on July 10, 2014 (GMT -0500)
Corning (K4M9) Elev 292 ft | 36.40 °N, 90.65 °W | Change Station

Current weather conditions updated 9 minutes ago

Light Rain
Light Rain
82 °F
Feels Like 85 °F
N
0
Wind Variable Wind from North

Tomorrow is forecast to be Warmer than today.

Today
High -- | Low -- °F
--% Chance of Precip.
Yesterday
High -- | Low -- °F
Precip. -- in
5:52 AM 8:22 PM
Waxing Gibbous, 97% visible
Pressure 30.06 in
Visibility 10.0 miles
Clouds Clear
Heat Index 85 °F
Dew Point 68 °F
Humidity 62%
Rainfall 0.09 in
Snow Depth Not available.
UV 1 out of 12
Pollen 3.40 out of 12
Air Quality Not available.
Flu Activity Sporadic
METAR K4M9 102335Z AUTO 00000KT 10SM -RA CLR 28/20 A3006 RMK AO2

More Conditions Fewer Conditions

Pressure 30.06 in
Visibility 10.0 miles
Clouds Clear
Heat Index 85 °F
Dew Point 68 °F
Humidity 62%
Rainfall 0.09 in
Snow Depth Not available.
UV 1 out of 12
Pollen 3.40 out of 12
Air Quality Not available.
Flu Activity Sporadic
METAR K4M9 102335Z AUTO 00000KT 10SM -RA CLR 28/20 A3006 RMK AO2

More Conditions Fewer Conditions

10-Day Weather Forecast

Almanac

Astronomy

Jul. 10, 2014 Rise Set
Actual Time 5:52 AM CDT 8:22 PM CDT
Civil Twilight 5:21 AM CDT 8:52 PM CDT
Nautical Twilight 4:44 AM CDT 9:29 PM CDT
Astronomical Twilight 4:03 AM CDT 10:10 PM CDT
Moon 6:36 PM CDT 4:01 AM CDT
Length of Visible Light 15h 30m
Length of Day
14h 30m
Tomorrow will be 0m 58s shorter.
Waxing Gibbous, 97% of the Moon is Illuminated
Today
Waxing Gibbous
Jul 12
Full
Jul 18
Last Quarter
Jul 26
New
Aug 3
First Quarter

Today's Extremes

State Highs State Lows

Community

WunderPhotos

Upload Photos

1,732,296 photos uploaded!

Nearby

Snow Depth

Station Depth Elevation
No new snow has been reported.

Earthquake Activity

City Distance Mag. Time & Date
Malden, Missouri 25 miles 2.8 8:41 AM CDT
2014-07-04
Minimum magnitude displayed is 2.5.

Coastal Water Temperatures

Place Temperature
No Stations Reporting

Nearby Weather Stations

Station Location Temp. Heat Index Dew Point Humidity Wind Precip. Elev Updated Type
MesoWest NEELEY , Neelyville, MO 87 °F 84 °F - - North  at  - 0.00 in / hr 298 ft 6:00 PM CDT MADIS
MesoWest STANL2 , Poplar Bluff, MO 83 °F 81 °F - - North  at  - 0.00 in / hr 323 ft 6:00 PM CDT MADIS
Inman Acres, Poplar Bluff, MO 80.2 °F 83 °F 70 °F 70% NW  at  0.0 mph 0.00 in / hr 341 ft 6:39 PM CDT Normal
Peaceful Acres, Poplar Bluff, MO 80.6 °F 85 °F 72 °F 75% North  at  0.0 mph 0.00 in / hr 338 ft 6:44 PM CDT Rapid Fire
Poplar Bluff 7 NW, Poplar Bluff, MO 78.3 °F 81 °F 68 °F 72% NNE  at  0.0 mph 0.00 in / hr 449 ft 6:44 PM CDT Rapid Fire
RAWS DONIPHAN MO, Doniphan, MO 81 °F 83 °F 66 °F 60% East  at  2 mph 0.00 in / hr 634 ft 5:53 PM CDT MADIS
MesoWest KNOBEL , Peach Orchard, AR 78 °F 76 °F - - North  at  - 0.00 in / hr 290 ft 5:55 PM CDT MADIS
MesoWest GRNWAY , Rector, AR 85 °F 82 °F - - North  at  - 0.00 in / hr 293 ft 5:10 PM CDT MADIS

Show More Stations Show Fewer Stations